Time;durP1;ratioP1;P1;durP2;ratioP2;P2;SDS_P1;SDS_P2;PMS_P1;PMS_P2;Temp;Humidity;BMP_temperature;BMP_pressure;BME280_temperature;BME280_humidity;BME280_pressure;Samples;Min_cycle;Max_cycle;Signal;HPM_P1;HPM_P2
2022/11/30 00:00:21;;;;;;;22.95;9.90;;;;;;;-7.53;74.53;102069.97;4987677;28;20062;-48
2022/11/30 00:02:54;;;;;;;33.20;11.30;;;;;;;-7.56;74.26;102063.06;4991310;28;20037;-51
2022/11/30 00:05:46;;;;;;;29.23;11.15;;;;;;;-7.56;74.78;102065.59;4982843;28;20430;-51
2022/11/30 00:08:12;;;;;;;24.48;10.93;;;;;;;-7.61;74.71;102064.34;4970313;28;20483;-49
2022/11/30 00:10:39;;;;;;;29.10;12.05;;;;;;;-7.64;74.59;102060.72;5003371;28;20128;-50
2022/11/30 00:13:05;;;;;;;27.45;10.70;;;;;;;-7.64;74.62;102068.31;4991339;28;20042;-48
2022/11/30 00:15:32;;;;;;;28.58;11.80;;;;;;;-7.83;74.27;102034.06;4992029;28;20038;-49
2022/11/30 00:17:58;;;;;;;26.25;13.40;;;;;;;-7.63;74.32;102070.94;4972290;28;20042;-49
2022/11/30 00:20:24;;;;;;;31.23;12.68;;;;;;;-7.66;74.32;102075.75;4993642;28;20049;-46
2022/11/30 00:22:50;;;;;;;30.08;13.38;;;;;;;-7.66;74.34;102072.34;4990182;28;20042;-49
2022/11/30 00:25:16;;;;;;;35.20;13.60;;;;;;;-7.67;74.24;102073.09;4988761;28;20045;-49
2022/11/30 00:27:42;;;;;;;28.98;12.38;;;;;;;-7.72;74.29;102065.19;4981137;28;20061;-51
2022/11/30 00:30:08;;;;;;;30.65;12.98;;;;;;;-7.69;74.45;102069.59;4984131;28;20073;-50
2022/11/30 00:32:34;;;;;;;31.77;11.90;;;;;;;-7.99;74.27;102025.19;4989751;28;20042;-48
2022/11/30 00:35:00;;;;;;;38.83;12.65;;;;;;;-7.75;73.91;102059.91;4996399;28;20053;-53
2022/11/30 00:37:25;;;;;;;31.85;13.13;;;;;;;-7.74;74.08;102072.63;5010250;28;20041;-54
2022/11/30 00:39:51;;;;;;;31.55;11.98;;;;;;;-7.75;74.08;102070.00;4986224;28;20054;-48
2022/11/30 00:42:17;;;;;;;27.38;12.85;;;;;;;-7.75;74.07;102064.97;4989818;28;20053;-52
2022/11/30 00:44:43;;;;;;;26.70;12.85;;;;;;;-7.75;74.47;102054.88;5005158;28;20317;-50
2022/11/30 00:47:10;;;;;;;29.20;13.15;;;;;;;-7.76;74.03;102053.97;5009834;28;20102;-50
2022/11/30 00:49:36;;;;;;;31.13;12.27;;;;;;;-7.76;74.49;102059.03;5004503;28;20042;-49
2022/11/30 00:52:02;;;;;;;30.42;11.95;;;;;;;-7.76;74.46;102059.03;4977858;28;20081;-50
2022/11/30 00:54:28;;;;;;;29.10;12.05;;;;;;;-7.75;74.36;102050.69;4996043;28;20045;-48
2022/11/30 00:56:55;;;;;;;27.80;11.95;;;;;;;-8.11;74.49;101988.94;5012641;28;20117;-48
2022/11/30 00:59:21;;;;;;;28.50;11.65;;;;;;;-7.73;74.53;102049.16;4996087;28;20522;-48
2022/11/30 01:01:47;;;;;;;26.13;11.35;;;;;;;-7.86;74.25;102021.22;4991761;28;20510;-47
2022/11/30 01:04:12;;;;;;;28.23;12.13;;;;;;;-7.72;74.49;102048.38;4993308;28;20093;-50
2022/11/30 01:06:38;;;;;;;30.77;12.48;;;;;;;-7.73;74.46;102055.84;4998101;28;20553;-46
2022/11/30 01:09:04;;;;;;;28.33;12.18;;;;;;;-7.72;74.46;102057.59;4988053;28;20050;-51
2022/11/30 01:11:31;;;;;;;23.73;11.25;;;;;;;-7.72;74.51;102047.50;5005296;28;20034;-48
2022/11/30 01:13:58;;;;;;;30.15;11.48;;;;;;;-7.72;74.32;102058.50;4991510;28;20046;-49
2022/11/30 01:16:27;;;;;;;30.35;12.35;;;;;;;-7.72;74.53;102050.91;5006901;28;20038;-51
2022/11/30 01:18:53;;;;;;;31.80;11.55;;;;;;;-7.72;74.10;102052.56;5004368;28;20046;-46
2022/11/30 01:21:21;;;;;;;28.85;11.52;;;;;;;-7.72;74.37;102052.56;4988074;28;20084;-50
2022/11/30 01:23:48;;;;;;;25.67;11.88;;;;;;;-7.72;74.03;102057.59;4999249;28;20209;-48
2022/11/30 01:26:14;;;;;;;27.63;11.32;;;;;;;-7.71;74.41;102049.28;5005098;28;20592;-52
2022/11/30 01:28:42;;;;;;;25.90;11.18;;;;;;;-7.71;74.10;102054.31;4990220;28;20525;-47
2022/11/30 01:31:11;;;;;;;21.33;11.27;;;;;;;-7.73;74.34;102045.75;4989400;28;20042;-50
2022/11/30 01:33:38;;;;;;;27.73;11.17;;;;;;;-7.74;74.26;102044.84;4990548;28;20046;-52
2022/11/30 01:36:13;;;;;;;25.20;11.18;;;;;;;-7.75;74.50;102050.69;4991304;28;20322;-50
2022/11/30 01:38:42;;;;;;;29.67;10.98;;;;;;;-7.77;74.10;102038.69;5007528;28;20042;-47
2022/11/30 01:41:09;;;;;;;29.65;12.07;;;;;;;-7.77;73.94;102051.31;5000749;28;20518;-48
2022/11/30 01:43:38;;;;;;;26.30;10.93;;;;;;;-7.78;74.03;102047.03;4998253;28;20061;-48
2022/11/30 01:46:06;;;;;;;31.25;12.70;;;;;;;-7.79;74.54;102046.16;5011491;28;20129;-47
2022/11/30 01:48:31;;;;;;;27.58;11.45;;;;;;;-7.82;74.36;102040.88;5000745;28;20542;-50
2022/11/30 01:50:57;;;;;;;27.83;11.77;;;;;;;-7.84;74.37;102037.34;4996079;28;20514;-48
2022/11/30 01:53:23;;;;;;;26.73;11.30;;;;;;;-7.98;74.23;102016.88;4980669;28;20109;-48
2022/11/30 01:55:49;;;;;;;22.75;10.20;;;;;;;-7.83;73.72;102049.22;4999002;28;20037;-48
2022/11/30 01:58:23;;;;;;;28.52;11.77;;;;;;;-7.85;74.13;102040.63;5007094;28;20042;-51
2022/11/30 02:00:49;;;;;;;28.40;11.90;;;;;;;-7.94;74.28;102026.44;5005634;28;20085;-46
2022/11/30 02:03:23;;;;;;;25.83;11.82;;;;;;;-7.87;74.00;102039.66;4992411;28;20552;-46
2022/11/30 02:05:49;;;;;;;25.73;12.07;;;;;;;-7.90;73.95;102036.88;4962752;28;20056;-49
2022/11/30 02:08:16;;;;;;;29.90;12.23;;;;;;;-7.90;74.36;102036.88;5000286;28;20122;-49
2022/11/30 02:10:43;;;;;;;24.17;11.63;;;;;;;-7.92;74.20;102033.38;4992543;28;20034;-49
2022/11/30 02:13:10;;;;;;;24.48;10.60;;;;;;;-7.94;74.41;102036.53;5001036;28;20054;-50
2022/11/30 02:16:20;;;;;;;24.80;10.95;;;;;;;-7.94;73.90;102034.00;5006369;28;20073;-49
2022/11/30 02:18:56;;;;;;;30.23;12.65;;;;;;;-8.18;74.04;101995.16;4984163;28;20553;-46
2022/11/30 02:21:49;;;;;;;23.92;10.65;;;;;;;-7.98;74.24;102037.06;4989921;28;20116;-48
2022/11/30 02:24:20;;;;;;;23.77;11.57;;;;;;;-8.00;73.76;102033.53;4984821;28;20042;-48
2022/11/30 02:26:57;;;;;;;28.48;11.98;;;;;;;-8.02;73.43;102033.41;5004129;28;20046;-46
2022/11/30 02:29:26;;;;;;;27.90;10.77;;;;;;;-8.03;73.89;102025.72;4981793;28;20064;-50
2022/11/30 02:32:30;;;;;;;23.37;10.90;;;;;;;-8.04;73.57;102026.47;4986484;28;20093;-47
2022/11/30 02:34:58;;;;;;;29.90;11.68;;;;;;;-8.06;73.59;102026.38;4978184;28;20303;-46
2022/11/30 02:37:25;;;;;;;22.75;11.35;;;;;;;-8.04;74.09;102027.38;4992274;28;20599;-48
2022/11/30 02:39:50;;;;;;;26.40;10.98;;;;;;;-8.08;73.72;102016.91;4995994;28;20034;-50
2022/11/30 02:42:16;;;;;;;27.10;10.85;;;;;;;-8.06;74.09;102022.97;5001485;28;20454;-48
2022/11/30 02:44:45;;;;;;;24.52;11.10;;;;;;;-8.05;73.65;102024.72;4995412;28;20130;-48
2022/11/30 02:47:25;;;;;;;26.98;10.75;;;;;;;-8.06;74.25;102025.50;5005310;28;20532;-53
2022/11/30 02:49:57;;;;;;;33.13;11.82;;;;;;;-8.06;73.59;102016.28;4987494;28;20098;-49
2022/11/30 02:52:25;;;;;;;28.45;11.90;;;;;;;-8.11;73.57;102012.50;4974514;28;20584;-49
2022/11/30 02:54:53;;;;;;;26.30;11.82;;;;;;;-8.07;74.36;102012.00;5009196;28;20038;-51
2022/11/30 02:57:18;;;;;;;31.40;11.27;;;;;;;-8.09;73.78;102012.63;4983795;28;20057;-47
2022/11/30 02:59:44;;;;;;;26.25;11.77;;;;;;;-8.08;74.34;102015.28;4992990;28;20046;-48
2022/11/30 03:02:10;;;;;;;29.23;11.30;;;;;;;-8.11;74.21;102009.13;4998664;28;20434;-49
2022/11/30 03:04:36;;;;;;;26.45;11.20;;;;;;;-8.08;73.89;102012.75;5002883;28;20046;-47
2022/11/30 03:07:02;;;;;;;29.45;10.82;;;;;;;-8.06;74.32;102010.34;4991773;28;20044;-48
2022/11/30 03:09:28;;;;;;;29.92;11.55;;;;;;;-8.07;73.60;102021.22;5007368;28;20037;-51
2022/11/30 03:11:54;;;;;;;24.73;11.43;;;;;;;-8.08;73.75;102020.31;5009110;28;20045;-48
2022/11/30 03:14:20;;;;;;;29.67;10.63;;;;;;;-8.09;73.54;102012.63;4986411;28;20045;-49
2022/11/30 03:16:46;;;;;;;25.38;10.15;;;;;;;-8.10;73.66;102015.91;5003335;28;20040;-49
2022/11/30 03:19:13;;;;;;;30.80;11.23;;;;;;;-8.09;74.02;102022.72;4983173;28;20128;-50
2022/11/30 03:21:38;;;;;;;26.20;11.25;;;;;;;-8.11;73.38;102021.75;4994990;28;20041;-49
2022/11/30 03:24:04;;;;;;;27.23;10.70;;;;;;;-8.28;73.48;101995.19;4991820;28;20041;-47
2022/11/30 03:26:30;;;;;;;24.67;11.30;;;;;;;-8.29;73.75;101991.78;5001243;28;20074;-51
2022/11/30 03:28:56;;;;;;;26.15;10.68;;;;;;;-8.14;73.72;102019.84;4983562;28;20046;-48
2022/11/30 03:31:22;;;;;;;29.67;10.15;;;;;;;-8.15;73.67;102016.44;4984177;28;20101;-47
2022/11/30 03:33:48;;;;;;;25.50;10.55;;;;;;;-8.15;73.81;102015.56;4997664;28;20044;-51
2022/11/30 03:36:14;;;;;;;25.63;10.20;;;;;;;-8.18;73.35;102017.84;4989882;28;20046;-50
2022/11/30 03:38:40;;;;;;;31.45;10.75;;;;;;;-8.17;73.74;102025.56;4977100;28;20070;-49
2022/11/30 03:41:15;;;;;;;25.17;10.70;;;;;;;-8.17;73.66;102024.66;4985583;28;20133;-51
2022/11/30 03:43:41;;;;;;;24.67;10.57;;;;;;;-8.22;73.23;102020.91;4987888;28;20495;-47
2022/11/30 03:46:07;;;;;;;21.20;9.63;;;;;;;-8.29;73.50;102008.56;4981933;28;20045;-49
2022/11/30 03:48:34;;;;;;;25.30;9.45;;;;;;;-8.21;73.51;102022.66;5008941;28;20038;-48
2022/11/30 03:51:01;;;;;;;25.63;9.93;;;;;;;-8.21;73.37;102027.69;4991591;28;20047;-48
2022/11/30 03:53:27;;;;;;;24.88;10.20;;;;;;;-8.24;73.18;102025.81;4977370;28;20506;-46
2022/11/30 03:55:55;;;;;;;26.23;10.52;;;;;;;-8.25;73.35;102018.13;4991287;28;20068;-48
2022/11/30 03:58:22;;;;;;;23.88;10.25;;;;;;;-8.23;73.15;102021.66;4995779;28;20053;-53
2022/11/30 04:00:48;;;;;;;23.33;10.13;;;;;;;-8.29;73.15;102011.97;5003315;28;20064;-48
2022/11/30 04:03:14;;;;;;;23.65;9.00;;;;;;;-8.24;73.74;102025.81;4984196;28;20509;-53
2022/11/30 04:05:40;;;;;;;22.75;9.20;;;;;;;-8.31;73.69;102018.56;5004149;28;20135;-49
2022/11/30 04:08:06;;;;;;;21.65;9.65;;;;;;;-8.28;73.32;102021.31;5010207;28;20045;-49
2022/11/30 04:10:32;;;;;;;21.30;9.45;;;;;;;-8.28;73.18;102018.78;4999716;28;20124;-48
2022/11/30 04:12:58;;;;;;;19.60;8.80;;;;;;;-8.29;72.90;102021.19;4990377;28;20046;-48
2022/11/30 04:15:24;;;;;;;19.23;9.60;;;;;;;-8.31;73.23;102018.56;5003104;28;20588;-47
2022/11/30 04:17:50;;;;;;;18.90;8.68;;;;;;;-8.61;73.35;101973.31;5002537;28;20049;-48
2022/11/30 04:20:16;;;;;;;25.65;10.98;;;;;;;-8.31;72.67;102021.09;4989088;28;20038;-47
2022/11/30 04:22:41;;;;;;;21.27;10.18;;;;;;;-8.31;73.07;102025.25;5007433;28;20048;-51
2022/11/30 04:25:07;;;;;;;24.08;9.65;;;;;;;-8.32;73.00;102026.88;5003156;28;20045;-52
2022/11/30 04:27:33;;;;;;;27.15;9.98;;;;;;;-8.33;72.69;102017.59;5010074;28;20033;-49
2022/11/30 04:29:59;;;;;;;25.00;9.25;;;;;;;-8.34;73.35;102020.88;4994134;28;20050;-48
2022/11/30 04:32:25;;;;;;;22.58;10.40;;;;;;;-8.34;72.60;102019.97;4998868;28;20045;-47
2022/11/30 04:34:50;;;;;;;25.17;9.98;;;;;;;-8.38;72.98;102016.34;4984524;28;20046;-47
2022/11/30 04:37:16;;;;;;;24.70;9.15;;;;;;;-8.42;72.56;102014.31;4998726;28;20506;-51
2022/11/30 04:39:42;;;;;;;22.33;9.00;;;;;;;-8.42;72.53;102026.94;5003241;28;20046;-51
2022/11/30 04:42:08;;;;;;;23.77;9.38;;;;;;;-8.44;73.34;102025.94;4985623;28;20042;-49
2022/11/30 04:44:34;;;;;;;25.88;10.68;;;;;;;-8.80;72.65;101965.94;4980830;28;20074;-51
2022/11/30 04:47:00;;;;;;;23.35;10.20;;;;;;;-8.42;72.90;102031.97;4987230;28;20092;-48
2022/11/30 04:49:26;;;;;;;23.48;9.52;;;;;;;-8.43;73.07;102039.44;4988862;28;20038;-47
2022/11/30 04:51:52;;;;;;;27.52;10.48;;;;;;;-8.63;72.64;102007.59;4990022;28;20096;-48
2022/11/30 04:54:18;;;;;;;26.15;9.73;;;;;;;-8.43;72.98;102041.97;4988537;28;20587;-48
2022/11/30 04:56:43;;;;;;;26.77;10.20;;;;;;;-8.44;72.56;102043.59;5032743;28;20468;-47
2022/11/30 04:59:09;;;;;;;23.77;10.75;;;;;;;-8.45;73.03;102039.31;4965749;28;20050;-48
2022/11/30 05:01:35;;;;;;;24.50;10.63;;;;;;;-8.43;73.36;102036.91;5001018;28;20092;-48
2022/11/30 05:04:01;;;;;;;22.77;10.38;;;;;;;-8.42;73.27;102039.53;5001825;28;20050;-51
2022/11/30 05:06:27;;;;;;;23.13;10.52;;;;;;;-8.42;73.05;102038.66;5003214;28;20100;-46
2022/11/30 05:08:53;;;;;;;26.73;10.10;;;;;;;-8.42;73.44;102041.19;5006723;28;20532;-49
2022/11/30 05:11:19;;;;;;;26.63;9.85;;;;;;;-8.40;73.35;102035.50;4993090;28;20042;-50
2022/11/30 05:13:45;;;;;;;28.17;11.13;;;;;;;-8.39;72.92;102031.34;4987109;28;20038;-49
2022/11/30 05:16:11;;;;;;;24.85;10.40;;;;;;;-8.38;72.99;102038.16;4999955;28;20044;-52
2022/11/30 05:18:37;;;;;;;26.63;10.45;;;;;;;-8.52;73.21;102006.78;4995917;28;20137;-47
2022/11/30 05:21:02;;;;;;;23.73;10.55;;;;;;;-8.36;72.36;102032.47;5004424;28;20124;-48
2022/11/30 05:23:28;;;;;;;29.27;9.98;;;;;;;-8.39;72.33;102026.31;4993035;28;20562;-51
2022/11/30 05:25:55;;;;;;;27.90;11.40;;;;;;;-8.41;72.52;102025.28;4985446;28;20049;-50
2022/11/30 05:28:20;;;;;;;25.27;10.70;;;;;;;-8.41;72.94;102025.28;5007623;28;20150;-50
2022/11/30 05:30:46;;;;;;;30.73;11.30;;;;;;;-8.43;72.99;102025.19;4995376;28;20066;-48
2022/11/30 05:33:12;;;;;;;19.98;9.48;;;;;;;-8.44;72.59;102031.00;4988852;28;20054;-50
2022/11/30 05:35:38;;;;;;;30.35;10.35;;;;;;;-8.43;72.72;102039.44;4989700;28;20034;-51
2022/11/30 05:38:04;;;;;;;28.67;11.80;;;;;;;-8.44;72.36;102032.63;4985267;28;20076;-49
2022/11/30 05:40:31;;;;;;;27.70;10.15;;;;;;;-8.45;72.55;102036.78;5002193;28;20306;-51
2022/11/30 05:42:58;;;;;;;25.70;11.10;;;;;;;-8.44;72.29;102045.25;4988049;28;20073;-49
2022/11/30 05:45:24;;;;;;;24.80;9.98;;;;;;;-8.61;72.83;102017.03;4996130;28;20046;-50
2022/11/30 05:47:50;;;;;;;29.10;10.98;;;;;;;-8.42;72.08;102041.19;4988458;28;20159;-45
2022/11/30 05:50:16;;;;;;;28.65;11.00;;;;;;;-8.42;73.01;102052.16;4990971;28;20453;-47
2022/11/30 05:52:42;;;;;;;26.92;10.82;;;;;;;-8.62;72.80;102019.44;5002131;28;20090;-50
2022/11/30 05:55:08;;;;;;;24.40;8.82;;;;;;;-8.38;72.81;102049.13;4984970;28;20084;-50
2022/11/30 05:57:38;;;;;;;29.17;11.55;;;;;;;-8.36;72.14;102060.22;4996625;28;20099;-49
2022/11/30 06:00:05;;;;;;;28.10;11.60;;;;;;;-8.34;72.38;102052.78;4980944;28;20254;-48
2022/11/30 06:02:37;;;;;;;27.38;10.57;;;;;;;-8.35;71.92;102051.88;4962630;28;20038;-53
2022/11/30 06:05:03;;;;;;;30.50;11.75;;;;;;;-8.32;72.33;102063.88;4996398;28;20077;-48
2022/11/30 06:07:29;;;;;;;33.83;10.70;;;;;;;-8.31;72.38;102058.03;5015780;28;20052;-50
2022/11/30 06:09:55;;;;;;;24.60;11.20;;;;;;;-8.26;72.17;102064.31;5005997;28;20425;-49
2022/11/30 06:12:21;;;;;;;31.17;12.27;;;;;;;-8.45;71.53;102029.22;5003365;28;20498;-50
2022/11/30 06:14:46;;;;;;;24.08;11.25;;;;;;;-8.22;72.00;102067.22;4994485;28;20118;-46
2022/11/30 06:17:12;;;;;;;30.73;12.23;;;;;;;-8.17;71.73;102070.09;5004783;28;20045;-50
2022/11/30 06:19:38;;;;;;;23.90;10.98;;;;;;;-8.35;71.76;102029.19;5021315;28;20050;-45
2022/11/30 06:22:04;;;;;;;31.00;11.75;;;;;;;-8.08;71.27;102064.88;4988462;28;20145;-51
2022/11/30 06:24:29;;;;;;;32.35;12.00;;;;;;;-8.03;71.60;102072.03;4989226;28;20038;-48
2022/11/30 06:26:55;;;;;;;25.65;10.20;;;;;;;-8.04;71.12;102067.75;4991102;28;20047;-47
2022/11/30 06:29:21;;;;;;;23.30;10.80;;;;;;;-7.98;71.44;102074.91;4990542;28;20499;-50
2022/11/30 06:31:47;;;;;;;24.40;10.48;;;;;;;-7.94;71.24;102069.34;4971441;28;20061;-51
2022/11/30 06:34:13;;;;;;;25.27;11.00;;;;;;;-7.80;71.18;102041.84;4986369;28;20039;-47
2022/11/30 06:36:38;;;;;;;22.80;10.57;;;;;;;-7.04;70.20;102069.50;4972932;28;20038;-53
2022/11/30 06:39:04;;;;;;;23.00;9.45;;;;;;;-6.80;69.49;102038.41;4989566;28;20180;-50
2022/11/30 06:41:30;;;;;;;32.35;10.95;;;;;;;-5.97;68.50;102075.56;4991715;28;20426;-52
2022/11/30 06:43:56;;;;;;;32.25;11.65;;;;;;;-5.35;66.99;102075.66;4989371;28;20042;-49
2022/11/30 06:46:22;;;;;;;29.05;10.98;;;;;;;-4.76;65.93;102064.38;4989244;28;20050;-56
2022/11/30 06:48:49;;;;;;;23.55;10.88;;;;;;;-4.32;64.37;102067.25;4989503;28;20104;-49
2022/11/30 06:51:15;;;;;;;25.30;10.70;;;;;;;-4.06;63.53;102080.69;4986398;28;20049;-49
2022/11/30 06:53:43;;;;;;;23.80;11.02;;;;;;;-3.61;62.74;102075.03;5003142;28;20054;-48
2022/11/30 06:56:09;;;;;;;29.48;11.98;;;;;;;-3.22;61.52;102077.41;4987839;28;20033;-49
2022/11/30 06:58:36;;;;;;;26.10;11.82;;;;;;;-2.97;60.84;102082.28;4977113;28;20049;-51
2022/11/30 07:01:11;;;;;;;32.40;11.90;;;;;;;-2.85;60.09;102082.13;4980164;28;20097;-48
2022/11/30 07:03:37;;;;;;;26.90;12.18;;;;;;;-2.70;59.66;102077.91;4976840;28;20425;-56
2022/11/30 07:06:08;;;;;;;29.08;11.75;;;;;;;-2.92;59.08;102037.59;4989515;28;20053;-46
2022/11/30 07:08:34;;;;;;;28.17;11.77;;;;;;;-2.36;59.05;102079.03;4954650;28;20047;-49
2022/11/30 07:11:00;;;;;;;26.45;11.48;;;;;;;-2.22;58.13;102050.09;4988185;28;20038;-50
2022/11/30 07:13:26;;;;;;;34.00;12.07;;;;;;;-1.74;57.00;102074.81;4988890;28;20054;-49
2022/11/30 07:15:52;;;;;;;40.35;12.48;;;;;;;-1.94;56.44;102043.94;4991108;28;20042;-48
2022/11/30 07:18:18;;;;;;;27.80;12.05;;;;;;;-1.79;56.09;102071.16;4997236;28;20616;-51
2022/11/30 07:20:44;;;;;;;31.15;13.02;;;;;;;-1.96;56.32;102071.03;4988890;28;20043;-51
2022/11/30 07:26:10;;;;;;;37.88;12.48;;;;;;;-2.19;55.94;102065.53;4980407;28;20054;-50
2022/11/30 07:28:39;;;;;;;32.03;12.52;;;;;;;-1.99;55.41;102091.25;4985713;28;20035;-51
2022/11/30 07:31:23;;;;;;;32.30;12.73;;;;;;;-1.69;55.08;102085.25;4968075;28;20478;-47
2022/11/30 07:33:49;;;;;;;40.35;14.35;;;;;;;-1.42;54.63;102084.16;5004843;28;20041;-53
2022/11/30 07:36:17;;;;;;;33.78;13.63;;;;;;;-1.23;53.85;102021.31;4989576;28;20459;-50
2022/11/30 07:38:43;;;;;;;32.55;13.52;;;;;;;-0.52;52.55;102084.47;4989169;28;20046;-47
2022/11/30 07:41:09;;;;;;;33.38;13.52;;;;;;;-0.63;52.36;102083.06;4984911;28;20084;-49
2022/11/30 07:43:35;;;;;;;33.85;14.00;;;;;;;-0.50;52.62;102085.44;4971765;28;20051;-51
2022/11/30 07:46:02;;;;;;;35.40;14.10;;;;;;;-0.38;52.04;102082.59;4979340;28;20043;-53
2022/11/30 07:48:28;;;;;;;32.90;13.98;;;;;;;0.32;51.51;102091.88;4984112;28;20046;-52
2022/11/30 07:51:00;;;;;;;31.55;14.55;;;;;;;0.34;50.33;102091.94;4987728;28;20133;-51
2022/11/30 07:53:26;;;;;;;40.17;15.98;;;;;;;0.04;50.87;102062.41;4972394;28;20643;-48
2022/11/30 07:55:52;;;;;;;37.00;14.75;;;;;;;0.54;50.69;102090.28;4983376;28;20062;-50
2022/11/30 07:58:18;;;;;;;34.40;14.50;;;;;;;1.06;50.04;102086.63;4986892;28;20066;-50
2022/11/30 08:00:43;;;;;;;36.22;14.65;;;;;;;1.59;49.46;102085.41;4987804;28;20419;-49
2022/11/30 08:03:09;;;;;;;36.75;13.95;;;;;;;1.92;48.29;102089.31;4985656;28;20046;-49
2022/11/30 08:05:35;;;;;;;40.30;16.08;;;;;;;1.97;47.77;102089.50;4971028;28;20099;-47
2022/11/30 08:08:01;;;;;;;31.35;13.88;;;;;;;1.66;47.30;102042.13;4988022;28;20434;-47
2022/11/30 08:10:27;;;;;;;35.53;14.75;;;;;;;1.57;47.76;102079.38;4987008;28;20038;-48
2022/11/30 08:12:53;;;;;;;40.08;15.32;;;;;;;1.17;48.29;102080.28;4972351;28;20402;-48
2022/11/30 08:15:18;;;;;;;34.95;14.05;;;;;;;1.33;48.15;102083.47;4990947;28;20049;-48
2022/11/30 08:17:44;;;;;;;38.40;15.07;;;;;;;1.83;47.82;102077.84;4986844;28;20422;-51
2022/11/30 08:20:11;;;;;;;38.40;14.98;;;;;;;2.00;47.37;102035.72;4951138;28;20046;-50
2022/11/30 08:22:36;;;;;;;43.25;15.30;;;;;;;2.58;46.78;102069.56;4984372;28;20038;-49
2022/11/30 08:25:03;;;;;;;45.63;15.57;;;;;;;2.78;46.20;102047.16;4994983;28;20082;-51
2022/11/30 08:27:28;;;;;;;36.90;15.73;;;;;;;3.02;45.60;102072.84;4990949;28;20038;-49
2022/11/30 08:29:54;;;;;;;36.80;14.18;;;;;;;3.01;45.40;102066.81;4985253;28;20486;-48
2022/11/30 08:32:20;;;;;;;42.25;14.98;;;;;;;2.70;45.35;102039.19;4986419;28;20046;-53
2022/11/30 08:34:46;;;;;;;41.88;15.75;;;;;;;2.88;45.48;102060.38;4987041;28;20088;-51
2022/11/30 08:37:12;;;;;;;40.53;15.20;;;;;;;2.80;45.25;102056.66;4987678;28;20076;-49
2022/11/30 08:39:37;;;;;;;48.20;16.85;;;;;;;2.71;45.17;102055.47;4982842;28;20833;-48
2022/11/30 08:42:03;;;;;;;38.92;15.50;;;;;;;2.73;45.14;102053.81;4989421;28;20548;-46
2022/11/30 08:44:29;;;;;;;39.92;15.57;;;;;;;3.08;44.91;102055.06;4985974;28;20046;-51
2022/11/30 08:46:55;;;;;;;38.05;15.18;;;;;;;3.63;44.12;102056.03;4987175;28;20710;-50
2022/11/30 08:49:22;;;;;;;30.17;15.10;;;;;;;4.28;43.52;102064.03;4988923;28;20045;-48
2022/11/30 08:51:49;;;;;;;38.28;15.65;;;;;;;4.80;42.64;102053.47;4987164;28;20034;-51
2022/11/30 08:54:15;;;;;;;32.13;14.95;;;;;;;4.93;42.12;102058.13;4989184;28;20196;-46
2022/11/30 08:56:41;;;;;;;48.72;15.43;;;;;;;4.59;41.53;102018.56;4965343;28;20624;-47
2022/11/30 08:59:07;;;;;;;40.42;14.93;;;;;;;4.69;41.44;102056.66;4980564;28;20042;-48
2022/11/30 09:01:32;;;;;;;45.08;17.35;;;;;;;4.37;41.80;102033.38;4971457;28;20046;-51
2022/11/30 09:03:58;;;;;;;36.22;16.10;;;;;;;4.41;42.10;102054.13;4976971;28;20073;-50
2022/11/30 09:06:26;;;;;;;43.17;17.65;;;;;;;4.24;42.78;102048.47;4985153;28;20627;-51
2022/11/30 09:08:54;;;;;;;33.97;15.50;;;;;;;4.21;42.33;102027.78;4986079;28;20042;-51
2022/11/30 09:11:24;;;;;;;46.53;15.57;;;;;;;4.84;42.07;102040.72;4977810;28;20052;-50
2022/11/30 09:13:52;;;;;;;39.72;16.85;;;;;;;5.03;41.45;102042.94;5020619;28;20038;-49
2022/11/30 09:16:19;;;;;;;38.35;17.67;;;;;;;5.22;41.24;102039.13;4970569;28;20045;-47
2022/11/30 09:18:48;;;;;;;55.22;23.67;;;;;;;5.16;40.77;102041.56;4988020;28;20843;-48
2022/11/30 09:21:16;;;;;;;45.00;18.10;;;;;;;4.98;41.02;102048.81;4988192;28;20461;-47
2022/11/30 09:23:42;;;;;;;39.35;16.17;;;;;;;4.71;41.52;102017.16;4987195;28;20529;-51
2022/11/30 09:26:13;;;;;;;38.97;15.15;;;;;;;5.09;41.67;102039.66;4988467;28;20034;-48
2022/11/30 09:28:39;;;;;;;32.90;14.50;;;;;;;5.31;41.15;102041.06;4987454;28;20116;-45
2022/11/30 09:31:09;;;;;;;30.55;14.98;;;;;;;5.42;40.71;102040.50;4987264;28;20041;-53
2022/11/30 09:33:36;;;;;;;31.25;15.73;;;;;;;5.10;40.57;102011.31;4967361;28;20038;-49
2022/11/30 09:36:04;;;;;;;29.73;14.55;;;;;;;5.26;40.43;102029.75;4973834;28;20050;-44
2022/11/30 09:38:30;;;;;;;32.70;14.75;;;;;;;5.43;40.52;102043.94;4981424;28;20056;-47
2022/11/30 09:40:58;;;;;;;36.17;15.80;;;;;;;4.83;41.21;102020.94;5003458;28;20049;-44
2022/11/30 09:43:52;;;;;;;33.40;15.30;;;;;;;3.79;42.57;102049.66;4986920;28;20038;-45
2022/11/30 09:46:25;;;;;;;38.22;16.35;;;;;;;2.71;44.36;102040.06;4989831;28;20058;-44
2022/11/30 09:49:01;;;;;;;39.00;15.45;;;;;;;2.06;45.79;102046.22;5005965;28;20042;-46
2022/11/30 09:51:37;;;;;;;41.92;16.38;;;;;;;1.49;46.27;102047.41;4990513;28;20046;-46
2022/11/30 09:54:08;;;;;;;43.92;15.73;;;;;;;1.08;47.43;102049.16;4991557;28;20584;-49
2022/11/30 09:56:38;;;;;;;40.97;15.55;;;;;;;0.72;48.12;102043.34;4988443;28;20038;-45
2022/11/30 09:59:21;;;;;;;45.15;15.18;;;;;;;0.48;49.08;102039.69;4984516;28;20148;-50
2022/11/30 10:01:47;;;;;;;38.80;15.68;;;;;;;0.25;49.58;102050.63;4994215;28;20050;-47
2022/11/30 10:04:24;;;;;;;35.75;16.70;;;;;;;0.06;50.13;102040.31;4986285;28;20050;-49
2022/11/30 10:07:21;;;;;;;34.58;14.52;;;;;;;-0.12;51.10;102043.81;4986780;28;20054;-47
2022/11/30 10:10:22;;;;;;;36.67;16.10;;;;;;;-0.45;51.22;102040.53;4979978;28;20039;-46
2022/11/30 10:13:10;;;;;;;34.60;15.77;;;;;;;-0.70;52.18;102046.94;4986103;28;20154;-45
2022/11/30 10:15:57;;;;;;;38.80;16.47;;;;;;;-1.03;52.59;102051.25;4970338;28;20109;-45
2022/11/30 10:18:45;;;;;;;30.35;13.50;;;;;;;-1.23;52.71;102044.28;4982975;28;20297;-54
2022/11/30 10:21:23;;;;;;;39.25;15.95;;;;;;;-1.40;53.61;102039.19;4979794;28;20775;-45
2022/11/30 10:24:17;;;;;;;45.72;19.42;;;;;;;-1.40;53.88;102045.94;4979706;28;20038;-46
2022/11/30 10:26:54;;;;;;;38.22;16.50;;;;;;;-1.45;53.96;102040.63;4984439;28;20070;-47
2022/11/30 10:29:29;;;;;;;44.00;16.48;;;;;;;-1.52;54.12;102045.34;4982302;28;20049;-45
2022/11/30 10:31:57;;;;;;;40.40;16.75;;;;;;;-1.55;54.45;102035.84;4985906;28;20042;-44
2022/11/30 10:34:35;;;;;;;42.42;17.10;;;;;;;-1.45;54.99;102039.72;4983121;28;20069;-42
2022/11/30 10:37:38;;;;;;;38.05;15.88;;;;;;;-0.18;53.53;102035.84;4982805;28;20040;-44
2022/11/30 10:40:30;;;;;;;31.63;15.50;;;;;;;1.61;50.99;102030.84;4929233;29;20035;-43
2022/11/30 10:43:07;;;;;;;41.95;16.95;;;;;;;2.97;48.47;102029.88;4986589;28;20050;-43
2022/11/30 10:45:34;;;;;;;39.65;15.35;;;;;;;3.98;46.74;102025.38;4976520;28;20035;-43
2022/11/30 10:48:48;;;;;;;34.53;16.10;;;;;;;5.04;45.09;102020.59;4978442;28;20057;-44
2022/11/30 10:51:14;;;;;;;31.67;15.73;;;;;;;5.95;43.14;102039.19;4960585;28;20046;-44
2022/11/30 10:53:39;;;;;;;40.72;17.42;;;;;;;6.35;42.17;102002.16;4992875;28;20112;-42
2022/11/30 10:56:07;;;;;;;33.67;15.55;;;;;;;7.16;41.31;102037.28;4974221;28;20063;-47
2022/11/30 10:58:38;;;;;;;35.35;15.32;;;;;;;7.57;40.33;102033.66;4983473;28;20047;-48
2022/11/30 11:01:31;;;;;;;36.38;17.00;;;;;;;7.95;39.72;102033.34;4983410;28;20042;-45
2022/11/30 11:04:15;;;;;;;37.42;16.52;;;;;;;8.39;38.91;102031.34;4985947;28;20515;-44
2022/11/30 11:06:47;;;;;;;37.45;16.67;;;;;;;8.55;38.16;101993.50;4991091;28;20050;-46
2022/11/30 11:09:29;;;;;;;37.13;15.82;;;;;;;8.45;38.30;102021.94;4967572;28;20046;-45
2022/11/30 11:12:04;;;;;;;40.97;17.38;;;;;;;7.60;38.88;102025.91;4982616;28;20510;-48
2022/11/30 11:14:30;;;;;;;39.88;18.35;;;;;;;6.93;39.72;102021.34;4985490;28;20047;-49
2022/11/30 11:17:03;;;;;;;42.00;17.58;;;;;;;6.57;40.00;102016.38;4995777;28;20074;-46
2022/11/30 11:19:37;;;;;;;34.85;17.30;;;;;;;6.68;39.68;102019.16;4975804;28;20049;-48
2022/11/30 11:22:25;;;;;;;43.20;17.73;;;;;;;6.82;39.48;102013.38;4974746;28;20576;-49